Time;durP1;ratioP1;P1;durP2;ratioP2;P2;SDS_P1;SDS_P2;PMS_P1;PMS_P2;Temp;Humidity;BMP_temperature;BMP_pressure;BME280_temperature;BME280_humidity;BME280_pressure;Samples;Min_cycle;Max_cycle;Signal;HPM_P1;HPM_P2
2023/03/24 00:09:18;;;;;;;8.38;2.25;;;18.90;50.90;;;;;;5051713;28;20296;-82
2023/03/24 00:14:31;;;;;;;5.38;1.77;;;18.90;50.90;;;;;;5049568;28;20200;-82
2023/03/24 00:19:54;;;;;;;5.90;1.92;;;18.90;50.90;;;;;;5051549;28;20235;-82
2023/03/24 00:22:27;;;;;;;9.30;1.65;;;18.90;50.90;;;;;;5051564;28;20238;-82
2023/03/24 00:27:40;;;;;;;7.63;1.88;;;18.90;50.90;;;;;;5051407;28;20223;-82
2023/03/24 00:33:00;;;;;;;11.13;2.13;;;18.90;51.60;;;;;;5051434;28;20227;-83
2023/03/24 00:41:35;;;;;;;6.88;2.10;;;18.80;50.90;;;;;;5053222;28;20230;-82
2023/03/24 00:44:08;;;;;;;9.48;2.30;;;18.80;50.90;;;;;;5054810;28;20711;-82
2023/03/24 00:49:40;;;;;;;8.68;2.60;;;18.80;50.90;;;;;;5054317;28;20207;-82
2023/03/24 01:08:56;;;;;;;9.88;2.38;;;18.80;50.90;;;;;;5054510;28;20202;-82
2023/03/24 01:11:28;;;;;;;9.68;2.40;;;18.70;50.80;;;;;;5054461;28;20205;-82
2023/03/24 01:17:33;;;;;;;7.95;2.33;;;18.70;50.80;;;;;;5053146;28;20732;-82
2023/03/24 01:20:06;;;;;;;8.60;2.13;;;18.70;50.80;;;;;;5054265;28;20266;-82
2023/03/24 01:28:00;;;;;;;7.78;2.15;;;18.70;50.80;;;;;;5054351;28;20264;-82
2023/03/24 01:33:26;;;;;;;7.28;1.98;;;18.70;50.80;;;;;;5053773;28;20242;-82
2023/03/24 01:38:36;;;;;;;9.90;2.40;;;18.70;50.80;;;;;;5053782;28;20310;-82
2023/03/24 01:43:49;;;;;;;10.82;2.40;;;18.70;50.80;;;;;;5054542;28;20199;-82
2023/03/24 01:54:37;;;;;;;8.23;2.55;;;18.70;50.80;;;;;;5053136;28;20206;-82
2023/03/24 02:23:43;;;;;;;6.63;1.92;;;18.60;50.70;;;;;;4952879;28;20263;-82
2023/03/24 03:11:22;;;;;;;12.85;2.50;;;18.50;50.70;;;;;;5052213;28;20198;-82
2023/03/24 03:25:23;;;;;;;6.95;2.28;;;18.40;50.60;;;;;;5052234;28;20296;-82
2023/03/24 03:34:43;;;;;;;10.63;2.80;;;18.50;50.70;;;;;;5050993;28;20231;-81
2023/03/24 03:37:42;;;;;;;11.05;2.55;;;18.40;50.70;;;;;;5046405;28;20269;-82
2023/03/24 03:40:18;;;;;;;10.35;2.67;;;18.40;50.60;;;;;;5052081;28;20219;-82
2023/03/24 03:42:54;;;;;;;10.75;3.05;;;18.40;50.60;;;;;;5050980;28;20211;-82
2023/03/24 03:48:12;;;;;;;12.05;2.20;;;18.40;50.60;;;;;;5051805;28;20306;-81
2023/03/24 03:50:48;;;;;;;9.38;2.50;;;18.40;50.60;;;;;;5052167;28;20193;-82
2023/03/24 04:02:32;;;;;;;11.13;2.47;;;18.40;50.60;;;;;;5050096;28;20215;-82
2023/03/24 04:18:15;;;;;;;12.10;2.80;;;18.40;50.70;;;;;;5055299;28;20220;-81
2023/03/24 04:29:46;;;;;;;10.27;2.33;;;18.40;50.70;;;;;;5054990;28;20294;-82
2023/03/24 04:55:43;;;;;;;11.82;2.50;;;18.30;50.50;;;;;;5053395;28;20200;-82
2023/03/24 05:14:43;;;;;;;8.70;2.50;;;18.30;50.60;;;;;;5054426;28;20238;-82
2023/03/24 05:17:40;;;;;;;10.38;2.75;;;18.30;50.60;;;;;;5054269;28;20250;-82
2023/03/24 05:40:18;;;;;;;9.88;2.35;;;18.30;50.60;;;;;;5052879;28;20223;-82
2023/03/24 05:52:54;;;;;;;8.60;2.28;;;18.30;50.60;;;;;;5054012;28;20707;-82
2023/03/24 05:58:51;;;;;;;9.02;2.33;;;18.30;50.70;;;;;;5053138;28;20220;-82
2023/03/24 06:06:44;;;;;;;5.47;2.30;;;18.40;50.80;;;;;;5053539;28;20207;-82
2023/03/24 06:09:13;;;;;;;7.93;2.40;;;18.40;50.80;;;;;;5053860;28;20227;-82
2023/03/24 06:11:41;;;;;;;8.43;2.03;;;18.40;50.70;;;;;;5053656;28;20195;-82
2023/03/24 06:14:12;;;;;;;6.90;2.10;;;18.40;50.80;;;;;;5035828;28;20211;-81
2023/03/24 06:16:41;;;;;;;7.07;2.40;;;18.40;50.80;;;;;;5052995;28;20206;-82
2023/03/24 06:19:12;;;;;;;6.93;2.25;;;18.40;50.70;;;;;;5053176;28;20233;-81
2023/03/24 06:21:43;;;;;;;11.77;2.50;;;18.50;50.80;;;;;;5052302;28;20192;-82
2023/03/24 06:27:01;;;;;;;6.47;2.03;;;18.50;50.80;;;;;;5053171;28;20196;-82
2023/03/24 06:32:17;;;;;;;11.30;2.00;;;18.50;50.80;;;;;;5051660;28;20205;-82
2023/03/24 06:40:14;;;;;;;9.05;2.20;;;18.60;50.80;;;;;;5052289;28;20227;-82
2023/03/24 06:42:42;;;;;;;4.80;1.70;;;18.60;50.90;;;;;;5053027;28;20215;-82
2023/03/24 06:56:29;;;;;;;10.23;2.45;;;18.70;50.90;;;;;;5052086;28;20199;-76
2023/03/24 06:58:56;;;;;;;13.68;2.83;;;18.70;50.90;;;;;;5052541;28;20215;-76
2023/03/24 07:01:24;;;;;;;11.40;2.95;;;18.70;50.60;;;;;;5052647;28;20453;-76
2023/03/24 07:03:53;;;;;;;13.65;3.13;;;18.70;50.30;;;;;;5052595;28;20251;-76
2023/03/24 07:06:21;;;;;;;12.55;3.20;;;18.60;50.00;;;;;;5051351;28;20183;-76
2023/03/24 07:08:49;;;;;;;16.70;3.22;;;18.60;49.80;;;;;;5052456;28;20307;-76
2023/03/24 07:11:16;;;;;;;20.58;4.45;;;18.40;49.60;;;;;;5051124;28;20198;-76
2023/03/24 07:13:44;;;;;;;16.55;3.05;;;18.40;50.00;;;;;;5051388;28;20223;-76
2023/03/24 07:16:11;;;;;;;17.30;3.40;;;18.30;49.90;;;;;;5052262;28;20269;-76
2023/03/24 07:18:38;;;;;;;16.92;3.25;;;18.30;49.90;;;;;;5051315;28;20697;-76
2023/03/24 07:21:07;;;;;;;14.52;2.50;;;18.30;50.00;;;;;;5050839;28;20227;-76
2023/03/24 07:23:35;;;;;;;21.67;3.42;;;18.30;49.90;;;;;;5052813;28;20223;-76
2023/03/24 07:26:02;;;;;;;13.82;3.00;;;18.20;49.80;;;;;;5050536;28;20203;-76
2023/03/24 07:28:30;;;;;;;17.27;3.85;;;18.20;50.30;;;;;;5050886;28;20689;-76
2023/03/24 07:30:58;;;;;;;18.52;3.45;;;18.20;51.60;;;;;;5052043;28;20203;-77
2023/03/24 07:33:25;;;;;;;16.90;3.38;;;18.20;52.30;;;;;;5051934;28;20724;-76
2023/03/24 07:35:56;;;;;;;21.30;3.92;;;18.10;53.20;;;;;;5052390;28;20211;-78
2023/03/24 07:38:25;;;;;;;20.00;3.85;;;18.10;52.90;;;;;;5034846;28;20211;-78
2023/03/24 07:40:53;;;;;;;20.17;4.10;;;18.10;52.30;;;;;;5050954;28;20657;-78
2023/03/24 07:43:20;;;;;;;14.15;3.42;;;18.10;52.10;;;;;;5050719;28;20222;-78
2023/03/24 07:45:48;;;;;;;25.17;3.53;;;18.00;51.90;;;;;;5050861;28;20697;-78
2023/03/24 07:48:15;;;;;;;13.45;3.40;;;18.10;51.80;;;;;;5050674;28;20591;-82
2023/03/24 07:50:42;;;;;;;15.90;3.30;;;18.10;51.90;;;;;;5049977;28;20222;-81
2023/03/24 07:53:10;;;;;;;11.18;3.10;;;18.10;51.80;;;;;;5040065;28;20333;-82
2023/03/24 07:55:39;;;;;;;12.07;3.08;;;18.10;51.80;;;;;;5053992;28;20588;-82
2023/03/24 07:58:06;;;;;;;14.30;3.00;;;18.20;51.90;;;;;;5056867;28;20230;-82
2023/03/24 08:00:36;;;;;;;9.18;2.53;;;18.30;51.80;;;;;;5056871;28;20218;-82
2023/03/24 08:03:03;;;;;;;14.13;2.97;;;18.30;51.80;;;;;;5055477;28;20772;-82
2023/03/24 08:05:31;;;;;;;11.70;2.47;;;18.30;51.70;;;;;;5055016;28;20184;-81
2023/03/24 08:07:59;;;;;;;11.80;3.05;;;18.40;51.70;;;;;;5037899;28;20215;-81
2023/03/24 08:10:29;;;;;;;12.68;2.55;;;18.40;51.70;;;;;;5054912;28;20668;-82
2023/03/24 08:12:59;;;;;;;12.65;2.72;;;18.50;51.70;;;;;;5054385;28;20540;-82
2023/03/24 08:15:27;;;;;;;11.43;2.28;;;18.50;51.70;;;;;;5055426;28;20195;-82
2023/03/24 08:17:55;;;;;;;9.13;2.47;;;18.50;51.60;;;;;;5055078;28;20701;-82
2023/03/24 08:20:23;;;;;;;13.15;2.90;;;18.60;51.70;;;;;;5055132;28;20251;-82
2023/03/24 08:22:53;;;;;;;12.60;3.10;;;18.60;51.60;;;;;;5055058;28;20807;-82
2023/03/24 08:25:22;;;;;;;9.55;2.50;;;18.60;51.60;;;;;;5054295;28;20278;-81
2023/03/24 08:27:49;;;;;;;6.95;2.13;;;18.70;51.60;;;;;;5053666;28;20215;-81
2023/03/24 08:30:20;;;;;;;9.43;2.90;;;18.70;51.60;;;;;;5054889;28;20262;-82
2023/03/24 08:32:50;;;;;;;10.48;2.67;;;18.70;51.50;;;;;;5053637;28;20246;-81
2023/03/24 08:35:20;;;;;;;10.35;2.78;;;18.70;51.40;;;;;;5055036;28;20742;-81
2023/03/24 08:37:48;;;;;;;10.73;2.53;;;18.80;51.60;;;;;;5037361;28;20584;-82
2023/03/24 08:40:19;;;;;;;10.02;2.58;;;18.80;51.50;;;;;;5053158;28;20704;-82
2023/03/24 08:42:49;;;;;;;11.75;2.90;;;18.90;51.60;;;;;;5054755;28;20299;-81
2023/03/24 08:45:20;;;;;;;9.05;2.40;;;18.80;51.40;;;;;;5054644;28;20196;-82
2023/03/24 08:47:49;;;;;;;10.70;2.65;;;18.90;51.50;;;;;;5042187;28;20286;-82
2023/03/24 08:50:16;;;;;;;11.30;2.88;;;18.80;51.40;;;;;;5035042;28;20211;-81
2023/03/24 08:52:46;;;;;;;8.98;2.72;;;18.90;51.50;;;;;;5038111;28;20696;-80
2023/03/24 08:55:15;;;;;;;12.57;3.20;;;18.90;51.50;;;;;;5054802;28;20199;-81
2023/03/24 08:57:42;;;;;;;10.35;2.50;;;19.00;51.60;;;;;;5052287;28;20273;-81
2023/03/24 09:00:14;;;;;;;8.98;2.45;;;19.00;51.50;;;;;;5054440;28;20763;-81
2023/03/24 09:02:43;;;;;;;8.82;2.60;;;19.00;51.50;;;;;;5054120;28;20318;-81
2023/03/24 09:05:11;;;;;;;13.57;3.33;;;19.00;51.40;;;;;;5054432;28;20184;-81
2023/03/24 09:07:38;;;;;;;9.32;2.53;;;19.00;51.30;;;;;;5053337;28;20215;-81
2023/03/24 09:10:07;;;;;;;11.30;2.78;;;19.10;51.30;;;;;;5069676;28;20682;-82
2023/03/24 09:12:35;;;;;;;7.60;2.10;;;19.10;51.30;;;;;;5085816;28;20657;-82
2023/03/24 09:15:02;;;;;;;7.78;2.10;;;19.10;51.20;;;;;;5086237;28;20574;-82
2023/03/24 09:17:30;;;;;;;10.00;2.53;;;19.10;51.20;;;;;;5054187;28;20211;-81
2023/03/24 09:19:58;;;;;;;11.60;2.42;;;19.10;51.20;;;;;;5054376;28;20231;-81
2023/03/24 09:22:25;;;;;;;10.82;2.47;;;19.10;51.10;;;;;;5053677;28;20218;-82
2023/03/24 09:24:53;;;;;;;9.60;2.35;;;19.10;51.10;;;;;;5054354;28;20199;-81
2023/03/24 09:27:22;;;;;;;6.63;1.70;;;19.10;51.00;;;;;;5053725;28;20653;-82
2023/03/24 09:29:49;;;;;;;8.88;2.13;;;19.20;51.10;;;;;;5069126;28;20231;-81
2023/03/24 09:32:16;;;;;;;7.68;2.25;;;19.20;51.00;;;;;;5065731;28;20242;-81
2023/03/24 09:34:43;;;;;;;9.32;2.30;;;19.20;51.00;;;;;;5067316;28;20641;-82
2023/03/24 09:37:12;;;;;;;8.00;2.20;;;19.20;50.90;;;;;;5052328;28;20207;-81
2023/03/24 09:39:40;;;;;;;12.63;2.35;;;19.20;50.90;;;;;;5052202;28;20230;-81
2023/03/24 09:42:15;;;;;;;5.65;1.90;;;19.30;50.90;;;;;;5061510;28;20199;-81
2023/03/24 09:44:46;;;;;;;8.48;1.95;;;19.20;50.80;;;;;;5058456;28;20222;-81
2023/03/24 09:47:21;;;;;;;7.35;1.92;;;19.30;50.90;;;;;;5071662;28;20205;-82
2023/03/24 09:49:49;;;;;;;7.70;2.10;;;19.30;51.40;;;;;;5056033;28;20246;-82
2023/03/24 09:52:24;;;;;;;8.68;1.77;;;19.30;50.80;;;;;;5064339;28;20264;-81
2023/03/24 09:54:55;;;;;;;7.60;1.90;;;19.30;50.70;;;;;;5070527;28;20209;-81
2023/03/24 09:57:26;;;;;;;9.32;2.22;;;19.30;50.70;;;;;;5061879;28;20195;-81
2023/03/24 09:59:53;;;;;;;8.20;2.25;;;19.30;50.70;;;;;;5068022;28;20633;-80
2023/03/24 10:02:21;;;;;;;8.90;2.22;;;19.30;50.70;;;;;;5054010;28;20280;-81
2023/03/24 10:04:50;;;;;;;5.78;1.83;;;19.30;50.60;;;;;;5052126;28;20571;-80
2023/03/24 10:07:29;;;;;;;7.05;2.30;;;19.30;50.60;;;;;;5060732;28;20198;-76
2023/03/24 10:09:58;;;;;;;6.18;2.35;;;19.30;50.70;;;;;;5052540;28;20192;-77
2023/03/24 10:12:35;;;;;;;6.57;1.80;;;19.30;50.70;;;;;;5053030;28;20195;-76
2023/03/24 10:15:17;;;;;;;8.65;2.25;;;19.30;50.70;;;;;;5052185;28;20206;-80
2023/03/24 10:17:54;;;;;;;8.68;1.95;;;19.40;50.80;;;;;;5051646;28;20196;-79
2023/03/24 10:20:34;;;;;;;14.35;1.70;;;19.40;51.10;;;;;;5052691;28;20222;-77
2023/03/24 10:23:11;;;;;;;9.18;2.40;;;19.40;51.00;;;;;;5047642;28;20665;-78
2023/03/24 10:25:50;;;;;;;8.02;1.88;;;19.50;51.10;;;;;;5043607;28;20195;-78
2023/03/24 10:28:21;;;;;;;9.20;2.03;;;19.50;51.30;;;;;;5054822;28;20211;-73
2023/03/24 10:30:50;;;;;;;12.45;2.10;;;19.50;51.40;;;;;;5034903;28;20227;-83
2023/03/24 10:33:19;;;;;;;5.22;1.80;;;19.60;51.80;;;;;;5032556;28;20613;-83
2023/03/24 10:35:55;;;;;;;11.40;2.10;;;19.60;51.80;;;;;;5032546;28;20204;-81
2023/03/24 10:38:24;;;;;;;8.68;1.88;;;19.60;51.90;;;;;;5034878;28;20319;-81
2023/03/24 10:40:53;;;;;;;7.38;1.90;;;19.60;51.70;;;;;;5051533;28;20227;-78
2023/03/24 10:43:23;;;;;;;9.02;2.15;;;19.70;51.70;;;;;;5051324;28;20707;-80
2023/03/24 10:45:53;;;;;;;13.25;2.00;;;19.70;51.60;;;;;;5051253;28;20204;-80
2023/03/24 10:48:41;;;;;;;8.05;2.10;;;19.70;51.40;;;;;;5052262;28;20215;-80
2023/03/24 10:51:15;;;;;;;10.07;1.90;;;19.70;51.40;;;;;;5052766;28;20195;-79
2023/03/24 10:53:46;;;;;;;6.30;1.77;;;19.70;51.30;;;;;;5052412;28;20223;-79
2023/03/24 10:56:17;;;;;;;12.65;1.80;;;19.70;51.30;;;;;;5051278;28;20202;-79
2023/03/24 10:58:48;;;;;;;7.53;1.83;;;19.70;51.30;;;;;;5052166;28;20246;-79
2023/03/24 11:01:26;;;;;;;6.05;1.70;;;19.70;51.30;;;;;;5050866;28;20234;-79
2023/03/24 11:03:59;;;;;;;9.65;2.47;;;19.70;51.20;;;;;;5044695;28;20270;-79
2023/03/24 11:06:27;;;;;;;10.23;2.38;;;19.70;51.20;;;;;;5048368;28;20736;-77
2023/03/24 11:09:19;;;;;;;9.68;2.22;;;19.80;51.20;;;;;;5051549;28;20227;-78
2023/03/24 11:11:46;;;;;;;26.27;3.65;;;19.70;51.20;;;;;;5052572;28;20653;-77
2023/03/24 11:14:24;;;;;;;10.35;1.98;;;19.80;51.20;;;;;;5049450;28;21120;-77
2023/03/24 11:16:52;;;;;;;8.18;2.20;;;19.80;51.10;;;;;;5049287;28;20317;-77
2023/03/24 11:19:21;;;;;;;7.03;2.03;;;19.80;51.10;;;;;;5049044;28;20227;-77
2023/03/24 11:21:51;;;;;;;8.23;1.60;;;19.80;51.10;;;;;;5050498;28;20223;-77
2023/03/24 11:24:31;;;;;;;7.78;2.10;;;19.80;51.10;;;;;;5050197;28;20772;-77
2023/03/24 11:27:04;;;;;;;11.38;2.00;;;19.80;51.00;;;;;;4997063;28;20599;-78
2023/03/24 11:29:40;;;;;;;7.00;2.13;;;19.80;51.00;;;;;;5046397;28;20731;-77
2023/03/24 11:32:17;;;;;;;12.07;2.20;;;19.80;50.80;;;;;;5032066;28;20203;-78
2023/03/24 11:34:51;;;;;;;38.60;18.73;;;19.80;50.90;;;;;;5048037;28;20219;-78
2023/03/24 11:37:22;;;;;;;82.55;47.13;;;19.90;51.50;;;;;;4984718;28;20207;-78
2023/03/24 11:40:21;;;;;;;121.57;68.15;;;19.90;50.80;;;;;;5052340;28;20598;-77
2023/03/24 11:42:52;;;;;;;154.43;87.68;;;19.90;50.80;;;;;;5044625;28;20282;-78
2023/03/24 11:45:35;;;;;;;183.90;104.72;;;19.90;50.80;;;;;;5047660;28;20227;-78
2023/03/24 11:48:11;;;;;;;195.35;115.50;;;19.90;50.80;;;;;;5049618;28;20219;-78
2023/03/24 11:50:40;;;;;;;184.35;106.88;;;19.90;50.70;;;;;;5048539;28;20725;-78
2023/03/24 11:53:13;;;;;;;130.65;76.00;;;19.90;50.60;;;;;;5047811;28;20265;-78
2023/03/24 11:55:48;;;;;;;110.20;63.40;;;20.00;50.60;;;;;;5047031;28;20200;-78
2023/03/24 11:58:27;;;;;;;70.80;42.85;;;20.00;50.60;;;;;;5048035;28;20218;-78
2023/03/24 12:00:58;;;;;;;66.47;38.17;;;20.00;50.50;;;;;;5049181;28;20223;-78
2023/03/24 12:03:54;;;;;;;55.63;33.22;;;20.00;50.50;;;;;;5048014;28;20227;-78
2023/03/24 12:06:33;;;;;;;56.70;33.35;;;20.00;50.20;;;;;;5050196;28;20678;-78
2023/03/24 12:09:14;;;;;;;51.67;29.63;;;20.00;50.30;;;;;;5047361;28;20760;-77
2023/03/24 12:12:02;;;;;;;40.75;26.40;;;20.00;50.40;;;;;;5048379;28;20195;-77
2023/03/24 12:14:46;;;;;;;37.33;21.00;;;20.00;50.30;;;;;;5045694;28;20772;-78
2023/03/24 12:17:16;;;;;;;38.47;20.63;;;20.00;50.20;;;;;;5046397;28;20195;-78
2023/03/24 12:20:00;;;;;;;31.85;18.75;;;20.00;50.20;;;;;;5048000;28;20220;-77
2023/03/24 12:22:41;;;;;;;25.80;15.52;;;20.00;50.20;;;;;;5046815;28;20311;-78
2023/03/24 12:25:35;;;;;;;59.83;15.27;;;20.00;50.10;;;;;;5047423;28;20208;-78
2023/03/24 12:28:28;;;;;;;28.65;12.82;;;20.00;50.10;;;;;;5048868;28;20199;-78
2023/03/24 12:31:05;;;;;;;25.98;12.43;;;20.00;50.00;;;;;;5048836;28;20222;-78
2023/03/24 12:33:45;;;;;;;23.10;12.57;;;20.00;50.70;;;;;;5047787;28;20246;-78
2023/03/24 12:36:38;;;;;;;18.88;10.43;;;20.10;50.20;;;;;;5048850;28;20705;-77
2023/03/24 12:39:09;;;;;;;24.48;11.13;;;20.00;50.00;;;;;;5051731;28;20231;-78
2023/03/24 12:41:44;;;;;;;18.13;10.00;;;20.10;50.10;;;;;;5053621;28;20227;-76
2023/03/24 12:44:47;;;;;;;20.80;9.20;;;20.10;50.00;;;;;;5052770;28;20219;-77
2023/03/24 12:47:37;;;;;;;16.88;8.80;;;20.10;50.70;;;;;;5015274;28;20203;-77
2023/03/24 12:50:15;;;;;;;15.05;7.75;;;20.10;50.00;;;;;;5050713;28;20227;-79
2023/03/24 12:52:54;;;;;;;13.95;8.02;;;20.10;50.00;;;;;;5052881;28;20206;-79
2023/03/24 12:55:30;;;;;;;15.95;6.65;;;20.10;50.00;;;;;;5053023;28;20206;-79
2023/03/24 12:58:04;;;;;;;12.85;7.07;;;20.10;50.00;;;;;;5054269;28;20266;-79
2023/03/24 13:00:37;;;;;;;12.00;6.70;;;20.10;49.90;;;;;;5053998;28;20211;-79
2023/03/24 13:03:09;;;;;;;13.40;6.57;;;20.10;49.80;;;;;;5045251;28;20214;-78
2023/03/24 13:05:41;;;;;;;12.63;6.28;;;20.10;49.90;;;;;;5020819;28;20253;-78
2023/03/24 13:08:15;;;;;;;12.00;5.50;;;20.10;49.90;;;;;;5049937;28;20275;-81
2023/03/24 13:10:46;;;;;;;13.98;5.65;;;20.10;49.90;;;;;;5052293;28;20732;-78
2023/03/24 13:13:18;;;;;;;11.63;5.07;;;20.20;50.10;;;;;;5051407;28;20206;-78
2023/03/24 13:15:50;;;;;;;14.73;5.22;;;20.20;50.00;;;;;;5053150;28;20190;-78
2023/03/24 13:18:29;;;;;;;16.05;5.75;;;20.20;49.80;;;;;;5052560;28;20180;-78
2023/03/24 13:21:02;;;;;;;14.35;5.18;;;20.20;49.70;;;;;;5052593;28;20199;-77
2023/03/24 13:23:39;;;;;;;10.48;4.60;;;20.20;49.70;;;;;;5052274;28;20222;-80
2023/03/24 13:26:17;;;;;;;11.98;4.95;;;20.20;49.70;;;;;;5053451;28;20198;-78
2023/03/24 13:28:52;;;;;;;11.43;5.07;;;20.20;49.70;;;;;;5052157;28;20219;-79
2023/03/24 13:31:24;;;;;;;12.52;4.50;;;20.20;49.70;;;;;;5047281;28;20591;-78
2023/03/24 13:33:53;;;;;;;14.07;4.53;;;20.20;49.80;;;;;;5038301;28;20246;-77
2023/03/24 13:36:34;;;;;;;8.80;3.67;;;20.20;49.70;;;;;;5054568;28;20199;-77
2023/03/24 13:39:07;;;;;;;13.77;4.07;;;20.20;49.80;;;;;;5039330;28;20225;-77
2023/03/24 13:41:38;;;;;;;10.18;4.30;;;20.20;49.80;;;;;;5047387;28;20779;-78
2023/03/24 13:44:15;;;;;;;8.85;4.10;;;20.30;49.80;;;;;;5041247;28;20219;-78
2023/03/24 13:46:59;;;;;;;10.98;3.80;;;20.30;49.80;;;;;;5043166;28;20206;-77
2023/03/24 13:49:26;;;;;;;11.90;4.55;;;20.20;49.70;;;;;;5043411;28;20229;-78
2023/03/24 13:51:54;;;;;;;11.55;3.97;;;20.20;49.70;;;;;;5047425;28;20219;-79
2023/03/24 13:54:23;;;;;;;11.57;3.25;;;20.30;49.90;;;;;;5047270;28;20215;-78
2023/03/24 13:56:55;;;;;;;10.55;3.15;;;20.20;49.80;;;;;;5046442;28;20199;-78
2023/03/24 13:59:28;;;;;;;9.50;3.58;;;20.20;49.70;;;;;;5046181;28;20713;-77
2023/03/24 14:02:58;;;;;;;13.07;3.60;;;20.20;49.70;;;;;;5046997;28;20733;-78
2023/03/24 14:05:42;;;;;;;8.55;3.22;;;20.30;49.80;;;;;;4966336;28;20781;-78
2023/03/24 14:08:16;;;;;;;10.02;3.33;;;20.30;49.90;;;;;;5047474;28;20196;-79
2023/03/24 14:10:47;;;;;;;7.05;2.78;;;20.30;49.90;;;;;;5049350;28;20306;-78
2023/03/24 14:13:34;;;;;;;6.82;2.75;;;20.30;49.90;;;;;;5048044;28;20221;-78
2023/03/24 14:16:26;;;;;;;8.60;2.75;;;20.30;49.90;;;;;;5038834;28;20192;-78
2023/03/24 14:19:22;;;;;;;7.78;2.92;;;20.30;49.90;;;;;;5045959;28;20223;-78
2023/03/24 14:22:12;;;;;;;7.72;2.33;;;20.40;50.00;;;;;;5048424;28;20280;-78
2023/03/24 14:24:41;;;;;;;8.00;2.25;;;20.40;50.00;;;;;;5038868;28;20215;-80
2023/03/24 14:27:33;;;;;;;5.68;2.20;;;20.40;50.00;;;;;;5048942;28;20693;-81
2023/03/24 14:30:07;;;;;;;8.20;2.78;;;20.50;50.00;;;;;;5051659;28;20283;-81
2023/03/24 14:32:40;;;;;;;7.28;2.28;;;20.40;49.90;;;;;;5032379;28;20709;-80
2023/03/24 14:35:30;;;;;;;7.55;2.55;;;20.40;49.70;;;;;;5047122;28;20235;-81
2023/03/24 14:38:00;;;;;;;8.50;2.30;;;20.50;49.70;;;;;;5048593;28;20292;-78
2023/03/24 14:40:33;;;;;;;12.88;2.85;;;20.40;49.70;;;;;;5045937;28;20266;-79
2023/03/24 14:43:18;;;;;;;6.57;2.50;;;20.40;49.60;;;;;;5046386;28;20223;-79
2023/03/24 14:45:55;;;;;;;5.75;2.47;;;20.40;49.50;;;;;;5046665;28;20226;-79
2023/03/24 14:48:36;;;;;;;7.20;2.35;;;20.40;49.60;;;;;;5042393;28;20203;-79
2023/03/24 14:51:25;;;;;;;8.02;2.72;;;20.40;49.60;;;;;;5047444;28;20226;-78
2023/03/24 14:53:57;;;;;;;8.25;2.00;;;20.40;49.60;;;;;;5043155;28;20200;-77
2023/03/24 14:56:28;;;;;;;6.57;2.13;;;20.40;49.50;;;;;;5048955;28;20233;-78
2023/03/24 14:58:59;;;;;;;5.88;1.85;;;20.40;49.40;;;;;;5049297;28;20196;-80
2023/03/24 15:01:31;;;;;;;9.07;2.05;;;20.40;49.40;;;;;;5043768;28;20195;-80
2023/03/24 15:04:03;;;;;;;6.25;2.00;;;20.40;49.50;;;;;;5041721;28;20675;-79
2023/03/24 15:06:32;;;;;;;5.40;2.08;;;20.50;49.50;;;;;;5042347;28;20667;-81
2023/03/24 15:09:05;;;;;;;5.00;1.80;;;20.40;49.40;;;;;;5046929;28;20751;-80
2023/03/24 15:11:34;;;;;;;6.38;1.83;;;20.50;49.40;;;;;;5045728;28;20203;-83
2023/03/24 15:14:03;;;;;;;8.02;2.17;;;20.50;49.40;;;;;;5047527;28;20582;-81
2023/03/24 15:16:32;;;;;;;6.70;2.25;;;20.50;49.40;;;;;;5045752;28;20202;-80
2023/03/24 15:19:02;;;;;;;6.65;2.10;;;20.50;49.40;;;;;;5046418;28;20568;-80
2023/03/24 15:21:34;;;;;;;9.30;2.50;;;20.50;49.40;;;;;;5045434;28;20203;-81
2023/03/24 15:24:02;;;;;;;8.13;2.03;;;20.50;49.30;;;;;;5044851;28;20266;-82
2023/03/24 15:26:31;;;;;;;6.47;1.83;;;20.50;49.40;;;;;;5046378;28;20198;-82
2023/03/24 15:29:00;;;;;;;8.48;1.73;;;20.50;49.30;;;;;;5046654;28;20211;-82
2023/03/24 15:31:30;;;;;;;10.25;2.50;;;20.50;49.30;;;;;;5046452;28;20257;-82
2023/03/24 15:34:06;;;;;;;9.23;1.83;;;20.50;49.30;;;;;;5037811;28;20238;-81
2023/03/24 15:36:45;;;;;;;6.05;2.28;;;20.50;49.30;;;;;;5044925;28;20246;-83
2023/03/24 15:39:21;;;;;;;5.82;2.20;;;20.50;49.30;;;;;;5036816;28;20601;-80
2023/03/24 15:41:52;;;;;;;10.02;2.22;;;20.50;49.30;;;;;;5046206;28;20215;-79
2023/03/24 15:44:21;;;;;;;7.25;1.95;;;20.50;49.30;;;;;;5049164;28;20195;-80
2023/03/24 15:46:49;;;;;;;5.97;1.85;;;20.50;49.30;;;;;;5042858;28;20196;-80
2023/03/24 15:49:24;;;;;;;7.88;1.98;;;20.50;49.30;;;;;;5040872;28;20195;-81
2023/03/24 15:51:57;;;;;;;5.10;2.00;;;20.50;49.30;;;;;;5046888;28;20197;-80
2023/03/24 15:54:26;;;;;;;5.43;1.30;;;20.60;49.30;;;;;;5046838;28;20199;-80
2023/03/24 15:57:16;;;;;;;4.75;1.85;;;20.60;49.30;;;;;;5044411;28;20204;-78
2023/03/24 15:59:47;;;;;;;7.00;1.73;;;20.60;49.30;;;;;;5050490;28;20725;-80
2023/03/24 16:02:27;;;;;;;6.22;1.70;;;20.60;49.20;;;;;;5048551;28;20204;-79
2023/03/24 16:05:00;;;;;;;4.82;1.60;;;20.70;49.20;;;;;;5049117;28;20215;-79
2023/03/24 16:07:32;;;;;;;6.50;2.67;;;20.70;49.20;;;;;;5047639;28;20658;-77
2023/03/24 16:10:04;;;;;;;6.13;1.77;;;20.70;49.20;;;;;;5042119;28;20230;-77
2023/03/24 16:12:35;;;;;;;6.55;1.60;;;20.70;49.20;;;;;;5042396;28;20223;-77
2023/03/24 16:15:04;;;;;;;3.45;1.35;;;20.70;49.20;;;;;;5053453;28;20310;-79
2023/03/24 16:17:32;;;;;;;8.45;1.83;;;20.70;49.10;;;;;;5053935;28;20183;-81
2023/03/24 16:19:59;;;;;;;7.40;1.95;;;20.70;49.10;;;;;;5052620;28;20595;-78
2023/03/24 16:22:26;;;;;;;7.20;1.85;;;20.70;49.10;;;;;;5054466;28;20223;-77
2023/03/24 16:24:57;;;;;;;5.97;1.80;;;20.70;48.90;;;;;;5052352;28;20712;-79
2023/03/24 16:27:24;;;;;;;6.78;2.22;;;20.70;48.80;;;;;;5053186;28;20188;-78
2023/03/24 16:29:51;;;;;;;11.63;2.20;;;20.70;48.70;;;;;;5052799;28;20195;-77
2023/03/24 16:32:18;;;;;;;6.13;1.80;;;20.70;48.70;;;;;;5044965;28;20196;-77
2023/03/24 16:34:46;;;;;;;6.95;1.70;;;20.70;48.80;;;;;;5053156;28;20199;-77
2023/03/24 16:37:14;;;;;;;10.60;1.75;;;20.70;48.80;;;;;;5050486;28;20192;-77
2023/03/24 16:39:42;;;;;;;6.60;1.55;;;20.70;48.80;;;;;;5045374;28;20203;-77
2023/03/24 16:42:11;;;;;;;7.20;1.83;;;20.70;48.70;;;;;;5052042;28;20234;-76
2023/03/24 16:44:39;;;;;;;9.32;2.13;;;20.70;48.80;;;;;;5053084;28;20192;-79
2023/03/24 16:47:10;;;;;;;12.00;1.88;;;20.70;48.70;;;;;;5053179;28;20220;-81
2023/03/24 16:49:37;;;;;;;6.35;1.60;;;20.70;48.70;;;;;;5050863;28;20196;-79
2023/03/24 16:52:07;;;;;;;5.30;1.40;;;20.70;48.70;;;;;;5053459;28;20716;-77
2023/03/24 16:54:34;;;;;;;10.57;1.50;;;20.80;48.90;;;;;;5053025;28;20192;-77
2023/03/24 16:57:01;;;;;;;8.77;1.88;;;20.70;48.70;;;;;;5052879;28;20261;-77
2023/03/24 16:59:30;;;;;;;7.40;1.70;;;20.70;48.70;;;;;;5052804;28;20665;-77
2023/03/24 17:02:03;;;;;;;8.20;1.80;;;20.70;48.80;;;;;;5050978;28;20216;-78
2023/03/24 17:04:32;;;;;;;8.52;1.50;;;20.70;48.70;;;;;;5050088;28;20195;-82
2023/03/24 17:07:00;;;;;;;9.98;2.05;;;20.70;48.60;;;;;;5046245;28;20580;-82
2023/03/24 17:09:27;;;;;;;8.35;1.95;;;20.70;48.60;;;;;;5052006;28;20203;-82
2023/03/24 17:11:57;;;;;;;9.38;1.75;;;20.80;48.70;;;;;;5053665;28;20254;-82
2023/03/24 17:14:24;;;;;;;5.88;2.00;;;20.80;48.60;;;;;;5054305;28;20225;-84
2023/03/24 17:16:54;;;;;;;8.63;1.55;;;20.80;48.60;;;;;;5053189;28;20219;-81
2023/03/24 17:19:23;;;;;;;4.25;1.45;;;20.80;48.50;;;;;;5053313;28;20203;-81
2023/03/24 17:22:01;;;;;;;8.07;1.77;;;20.80;48.50;;;;;;5073496;28;20227;-84
2023/03/24 17:24:30;;;;;;;7.35;1.77;;;20.80;48.40;;;;;;5073753;28;20757;-85
2023/03/24 17:26:57;;;;;;;11.48;1.80;;;20.70;48.30;;;;;;5057584;28;20228;-79
2023/03/24 17:29:24;;;;;;;8.23;1.88;;;20.80;48.40;;;;;;5054123;28;20654;-80
2023/03/24 17:31:55;;;;;;;11.82;1.90;;;20.80;48.30;;;;;;5053901;28;20231;-79
2023/03/24 17:34:22;;;;;;;7.90;1.42;;;20.80;48.40;;;;;;5052382;28;20658;-82
2023/03/24 17:36:49;;;;;;;5.15;1.63;;;20.80;48.30;;;;;;5053185;28;20226;-81
2023/03/24 17:39:18;;;;;;;8.55;1.70;;;20.80;48.30;;;;;;5054080;28;20203;-81
2023/03/24 17:41:45;;;;;;;6.93;1.60;;;20.70;48.30;;;;;;5053216;28;20251;-81
2023/03/24 17:44:12;;;;;;;10.82;2.00;;;20.80;48.30;;;;;;5053770;28;20224;-81
2023/03/24 17:46:40;;;;;;;7.97;1.90;;;20.70;48.30;;;;;;5054115;28;20293;-80
2023/03/24 17:49:09;;;;;;;5.97;1.70;;;20.70;48.30;;;;;;5053606;28;20591;-81
2023/03/24 17:51:36;;;;;;;7.63;1.50;;;20.70;48.30;;;;;;5053587;28;20603;-80
2023/03/24 17:54:04;;;;;;;10.05;1.67;;;20.70;48.30;;;;;;5053942;28;20607;-81
2023/03/24 17:56:31;;;;;;;7.30;2.08;;;20.60;48.20;;;;;;5053345;28;20211;-80
2023/03/24 17:58:58;;;;;;;5.53;1.60;;;20.60;48.20;;;;;;5053819;28;20196;-81
2023/03/24 18:01:28;;;;;;;5.55;1.45;;;20.60;48.20;;;;;;5053637;28;20623;-80
2023/03/24 18:03:55;;;;;;;7.10;1.40;;;20.60;48.20;;;;;;5015408;28;20594;-80